Time;durP1;ratioP1;P1;durP2;ratioP2;P2;SDS_P1;SDS_P2;PMS_P1;PMS_P2;Temp;Humidity;BMP_temperature;BMP_pressure;BME280_temperature;BME280_humidity;BME280_pressure;Samples;Min_cycle;Max_cycle;Signal;HPM_P1;HPM_P2
2023/03/07 00:00:11;;;;;;;11.00;4.43;;;1.20;99.90;;;;;;5033869;28;20536;-65
2023/03/07 00:02:37;;;;;;;11.70;5.93;;;1.20;99.90;;;;;;5032930;28;20196;-65
2023/03/07 00:05:04;;;;;;;12.13;5.07;;;1.20;99.90;;;;;;5033496;28;20508;-65
2023/03/07 00:07:30;;;;;;;10.70;5.60;;;1.20;99.90;;;;;;5033090;28;20476;-65
2023/03/07 00:09:57;;;;;;;13.13;5.33;;;1.20;99.90;;;;;;5033318;28;20827;-65
2023/03/07 00:12:23;;;;;;;14.60;5.70;;;1.20;99.90;;;;;;5032789;28;20425;-65
2023/03/07 00:14:49;;;;;;;8.97;5.10;;;1.10;99.90;;;;;;5033204;28;20417;-65
2023/03/07 00:17:14;;;;;;;10.00;4.93;;;1.10;99.90;;;;;;5032582;28;20475;-65
2023/03/07 00:19:43;;;;;;;13.50;5.90;;;1.20;99.90;;;;;;5032979;28;20194;-65
2023/03/07 00:22:10;;;;;;;11.17;4.83;;;1.10;99.90;;;;;;5032681;28;20937;-65
2023/03/07 00:24:36;;;;;;;13.90;6.00;;;1.20;99.90;;;;;;5028384;28;20425;-65
2023/03/07 00:27:02;;;;;;;13.20;6.63;;;1.20;99.90;;;;;;5025627;28;20635;-65
2023/03/07 00:29:28;;;;;;;6.50;4.30;;;1.20;99.90;;;;;;5025949;28;20185;-65
2023/03/07 00:31:53;;;;;;;9.90;4.43;;;1.20;99.90;;;;;;5033809;28;20959;-65
2023/03/07 00:34:19;;;;;;;12.50;6.13;;;1.30;99.90;;;;;;5028801;28;20448;-65
2023/03/07 00:36:45;;;;;;;12.50;5.73;;;1.30;99.90;;;;;;5032622;28;20178;-65
2023/03/07 00:39:10;;;;;;;10.83;4.67;;;1.30;99.90;;;;;;5032504;28;20186;-65
2023/03/07 00:41:36;;;;;;;10.77;5.10;;;1.30;99.90;;;;;;5032168;28;20268;-65
2023/03/07 00:44:02;;;;;;;12.80;5.07;;;1.30;99.90;;;;;;5032598;28;20194;-65
2023/03/07 00:46:27;;;;;;;10.07;5.23;;;1.30;99.90;;;;;;5032526;28;20575;-65
2023/03/07 00:48:53;;;;;;;10.73;5.13;;;1.20;99.90;;;;;;5032923;28;20253;-65
2023/03/07 00:51:20;;;;;;;11.20;5.33;;;1.20;99.90;;;;;;5032630;28;20183;-65
2023/03/07 00:53:46;;;;;;;13.27;5.07;;;1.20;99.90;;;;;;5031825;28;20183;-65
2023/03/07 00:56:12;;;;;;;8.00;5.00;;;1.20;99.90;;;;;;5032050;28;20425;-65
2023/03/07 00:58:37;;;;;;;11.13;5.27;;;1.20;99.90;;;;;;5032524;28;20738;-65
2023/03/07 01:01:05;;;;;;;20.40;5.07;;;1.20;99.90;;;;;;5031570;28;20608;-65
2023/03/07 01:03:33;;;;;;;12.07;4.80;;;1.10;99.90;;;;;;5032041;28;20627;-65
2023/03/07 01:06:02;;;;;;;10.97;4.60;;;1.20;99.90;;;;;;5031599;28;20425;-65
2023/03/07 01:08:29;;;;;;;8.87;3.90;;;1.20;99.90;;;;;;5031489;28;21274;-65
2023/03/07 01:10:58;;;;;;;9.27;4.33;;;1.20;99.90;;;;;;5031919;28;20436;-65
2023/03/07 01:13:24;;;;;;;14.50;5.03;;;1.20;99.90;;;;;;5031736;28;20409;-65
2023/03/07 01:15:50;;;;;;;13.47;4.90;;;1.20;99.90;;;;;;5031756;28;20444;-65
2023/03/07 01:18:16;;;;;;;8.57;4.87;;;1.20;99.90;;;;;;5031637;28;21016;-65
2023/03/07 01:20:42;;;;;;;9.73;5.03;;;1.30;99.90;;;;;;5031716;28;20202;-65
2023/03/07 01:23:07;;;;;;;11.20;5.37;;;1.20;99.90;;;;;;5031145;28;20189;-65
2023/03/07 01:25:42;;;;;;;9.97;4.33;;;1.30;99.90;;;;;;5031354;28;20214;-66
2023/03/07 01:28:12;;;;;;;9.00;4.67;;;1.20;99.90;;;;;;5031845;28;20215;-65
2023/03/07 01:30:37;;;;;;;10.47;5.03;;;1.20;99.90;;;;;;5031646;28;20770;-65
2023/03/07 01:33:03;;;;;;;10.97;5.43;;;1.20;99.90;;;;;;5031010;28;20433;-65
2023/03/07 01:35:29;;;;;;;10.43;5.10;;;1.30;99.90;;;;;;5031935;28;20182;-65
2023/03/07 01:37:55;;;;;;;12.57;4.70;;;1.30;99.90;;;;;;5031618;28;20194;-65
2023/03/07 01:40:22;;;;;;;11.77;5.20;;;1.30;99.90;;;;;;5031463;28;20508;-65
2023/03/07 01:42:48;;;;;;;10.80;4.90;;;1.30;99.90;;;;;;5031185;28;20413;-65
2023/03/07 01:45:13;;;;;;;8.70;4.33;;;1.30;99.90;;;;;;5031466;28;20509;-65
2023/03/07 01:47:42;;;;;;;8.87;4.97;;;1.30;99.90;;;;;;5030818;28;20230;-65
2023/03/07 01:50:12;;;;;;;11.17;4.47;;;1.30;99.90;;;;;;5031372;28;20786;-65
2023/03/07 01:52:54;;;;;;;13.20;5.00;;;1.30;99.90;;;;;;5030526;28;20768;-65
2023/03/07 01:55:26;;;;;;;14.43;5.57;;;1.40;99.90;;;;;;5031159;28;20464;-65
2023/03/07 01:57:54;;;;;;;8.50;4.70;;;1.30;99.90;;;;;;5031083;28;20421;-65
2023/03/07 02:00:24;;;;;;;15.93;6.43;;;1.30;99.90;;;;;;5030820;28;20425;-65
2023/03/07 02:03:07;;;;;;;10.27;4.83;;;1.40;99.90;;;;;;5029489;28;20775;-65
2023/03/07 02:05:48;;;;;;;6.87;4.20;;;1.40;99.90;;;;;;5026718;28;20786;-65
2023/03/07 02:08:17;;;;;;;14.13;4.90;;;1.30;99.90;;;;;;5036805;28;20500;-65
2023/03/07 02:10:43;;;;;;;15.73;4.87;;;1.40;99.90;;;;;;5030986;28;20470;-65
2023/03/07 02:13:09;;;;;;;9.97;4.97;;;1.40;99.90;;;;;;5029969;28;20417;-65
2023/03/07 02:15:35;;;;;;;9.63;4.80;;;1.30;99.90;;;;;;5030894;28;20182;-65
2023/03/07 02:18:01;;;;;;;12.60;5.57;;;1.30;99.90;;;;;;5029690;28;20762;-65
2023/03/07 02:21:14;;;;;;;13.57;5.70;;;1.30;99.90;;;;;;5031403;28;20468;-65
2023/03/07 02:23:55;;;;;;;10.20;5.20;;;1.30;99.90;;;;;;5008695;28;20432;-65
2023/03/07 02:26:23;;;;;;;8.37;5.13;;;1.30;99.90;;;;;;5030130;28;20429;-65
2023/03/07 02:28:49;;;;;;;9.23;4.37;;;1.40;99.90;;;;;;5030524;28;20465;-65
2023/03/07 02:31:15;;;;;;;11.60;6.20;;;1.30;99.90;;;;;;5030256;28;20451;-65
2023/03/07 02:33:40;;;;;;;11.53;5.33;;;1.30;99.90;;;;;;5030124;28;20417;-65
2023/03/07 02:36:13;;;;;;;9.03;4.87;;;1.30;99.90;;;;;;5012632;28;20185;-65
2023/03/07 02:38:41;;;;;;;8.67;4.60;;;1.30;99.90;;;;;;5025096;28;20315;-65
2023/03/07 02:41:10;;;;;;;14.33;5.70;;;1.30;99.90;;;;;;5030469;28;20922;-65
2023/03/07 02:43:36;;;;;;;11.63;5.47;;;1.30;99.90;;;;;;5030087;28;20417;-65
2023/03/07 02:46:03;;;;;;;13.83;5.90;;;1.30;99.90;;;;;;5030314;28;21121;-65
2023/03/07 02:48:29;;;;;;;12.73;4.93;;;1.40;99.90;;;;;;5030015;28;20272;-65
2023/03/07 02:50:54;;;;;;;15.43;5.47;;;1.30;99.90;;;;;;5030422;28;20501;-65
2023/03/07 02:53:20;;;;;;;15.47;5.97;;;1.20;99.90;;;;;;5029633;28;20265;-65
2023/03/07 02:55:45;;;;;;;11.77;5.17;;;1.20;99.90;;;;;;5030418;28;20189;-65
2023/03/07 02:58:11;;;;;;;14.63;5.23;;;1.20;99.90;;;;;;5030175;28;20304;-65
2023/03/07 03:00:36;;;;;;;13.53;5.43;;;1.20;99.90;;;;;;5030618;28;20205;-65
2023/03/07 03:03:02;;;;;;;12.27;5.40;;;1.10;99.90;;;;;;5029217;28;20186;-65
2023/03/07 03:05:28;;;;;;;10.33;5.57;;;1.10;99.90;;;;;;5030606;28;20240;-65
2023/03/07 03:07:54;;;;;;;11.97;6.10;;;1.10;99.90;;;;;;5030030;28;20472;-65
2023/03/07 03:10:19;;;;;;;10.33;4.73;;;1.10;99.90;;;;;;5030261;28;20584;-65
2023/03/07 03:12:45;;;;;;;9.33;4.27;;;1.00;99.90;;;;;;5029801;28;20185;-65
2023/03/07 03:15:11;;;;;;;11.87;6.07;;;1.00;99.90;;;;;;5030138;28;20178;-65
2023/03/07 03:17:37;;;;;;;16.10;5.90;;;1.00;99.90;;;;;;5029615;28;20439;-65
2023/03/07 03:20:07;;;;;;;14.80;5.00;;;0.90;99.90;;;;;;5029964;28;20205;-65
2023/03/07 03:22:33;;;;;;;10.23;5.77;;;0.90;99.90;;;;;;5029855;28;20846;-66
2023/03/07 03:24:59;;;;;;;10.23;4.87;;;1.00;99.90;;;;;;5029475;28;20471;-65
2023/03/07 03:27:24;;;;;;;10.77;5.00;;;1.00;99.90;;;;;;5026056;28;20671;-65
2023/03/07 03:29:53;;;;;;;12.73;5.40;;;1.00;99.90;;;;;;5033343;28;20175;-65
2023/03/07 03:32:19;;;;;;;11.57;4.67;;;1.00;99.90;;;;;;5032768;28;20186;-65
2023/03/07 03:34:45;;;;;;;11.57;5.83;;;1.10;99.90;;;;;;5033882;28;20420;-65
2023/03/07 03:37:10;;;;;;;13.63;6.10;;;1.10;99.90;;;;;;5033795;28;20674;-65
2023/03/07 03:39:36;;;;;;;12.40;5.40;;;1.10;99.90;;;;;;5033692;28;20178;-64
2023/03/07 03:42:02;;;;;;;12.03;5.93;;;1.10;99.90;;;;;;5033093;28;20206;-64
2023/03/07 03:44:28;;;;;;;13.03;6.73;;;1.10;99.90;;;;;;5033840;28;20429;-65
2023/03/07 03:46:54;;;;;;;13.93;5.30;;;1.10;99.90;;;;;;5033982;28;20170;-65
2023/03/07 03:49:20;;;;;;;11.90;5.73;;;1.10;99.90;;;;;;5033530;28;20916;-65
2023/03/07 03:51:46;;;;;;;22.13;6.67;;;1.10;99.90;;;;;;5033247;28;20409;-65
2023/03/07 03:54:11;;;;;;;16.60;5.63;;;1.10;99.90;;;;;;5033664;28;20193;-65
2023/03/07 03:56:37;;;;;;;13.10;6.23;;;1.10;99.90;;;;;;5033523;28;20178;-65
2023/03/07 03:59:03;;;;;;;10.77;4.43;;;1.10;99.90;;;;;;5033803;28;20178;-65
2023/03/07 04:01:29;;;;;;;16.70;7.70;;;1.20;99.90;;;;;;5032676;28;20178;-65
2023/03/07 04:03:55;;;;;;;11.43;5.90;;;1.20;99.90;;;;;;5033505;28;20760;-65
2023/03/07 04:06:26;;;;;;;12.20;4.87;;;1.10;99.90;;;;;;5033223;28;20182;-65
2023/03/07 04:08:52;;;;;;;13.00;5.50;;;1.10;99.90;;;;;;5033291;28;20484;-65
2023/03/07 04:11:19;;;;;;;12.20;5.27;;;1.10;99.90;;;;;;5032988;28;20413;-65
2023/03/07 04:13:45;;;;;;;9.93;5.47;;;1.20;99.90;;;;;;5032879;28;20425;-65
2023/03/07 04:16:11;;;;;;;11.17;5.67;;;1.20;99.90;;;;;;5032712;28;20409;-65
2023/03/07 04:18:37;;;;;;;15.57;5.93;;;1.20;99.90;;;;;;5033142;28;20244;-65
2023/03/07 04:21:04;;;;;;;14.10;4.93;;;1.20;99.90;;;;;;5030794;28;20201;-65
2023/03/07 04:23:31;;;;;;;11.13;5.97;;;1.20;99.90;;;;;;5031197;28;20973;-65
2023/03/07 04:25:58;;;;;;;13.57;5.10;;;1.20;99.90;;;;;;5032735;28;20482;-65
2023/03/07 04:28:41;;;;;;;21.13;4.57;;;1.20;99.90;;;;;;5032340;28;20468;-65
2023/03/07 04:31:07;;;;;;;14.23;4.73;;;1.20;99.90;;;;;;5032159;28;20409;-65
2023/03/07 04:33:32;;;;;;;9.97;5.27;;;1.20;99.90;;;;;;5032591;28;20788;-65
2023/03/07 04:35:58;;;;;;;12.03;4.80;;;1.20;99.90;;;;;;5032835;28;20197;-65
2023/03/07 04:38:23;;;;;;;13.13;5.70;;;1.20;99.90;;;;;;5032801;28;20501;-65
2023/03/07 04:40:49;;;;;;;12.63;5.83;;;1.10;99.90;;;;;;5032303;28;20183;-65
2023/03/07 04:43:15;;;;;;;7.60;4.37;;;1.10;99.90;;;;;;5032110;28;20732;-65
2023/03/07 04:45:40;;;;;;;13.10;4.70;;;1.10;99.90;;;;;;5033012;28;20182;-65
2023/03/07 04:48:06;;;;;;;13.00;6.13;;;1.10;99.90;;;;;;5032340;28;20202;-65
2023/03/07 04:50:32;;;;;;;7.20;4.70;;;1.10;99.90;;;;;;5032377;28;20200;-65
2023/03/07 04:52:58;;;;;;;10.13;4.97;;;1.10;99.90;;;;;;5032345;28;20629;-65
2023/03/07 04:55:23;;;;;;;12.53;5.17;;;1.10;99.90;;;;;;5031959;28;20300;-65
2023/03/07 04:57:50;;;;;;;17.27;4.50;;;1.10;99.90;;;;;;5032366;28;20175;-65
2023/03/07 05:00:17;;;;;;;11.07;5.10;;;1.10;99.90;;;;;;5032391;28;20264;-65
2023/03/07 05:02:43;;;;;;;12.00;4.93;;;1.10;99.90;;;;;;5031448;28;20417;-65
2023/03/07 05:05:09;;;;;;;10.77;4.93;;;1.10;99.90;;;;;;5031945;28;20512;-65
2023/03/07 05:07:35;;;;;;;12.40;6.40;;;1.10;99.90;;;;;;5032202;28;20480;-65
2023/03/07 05:10:00;;;;;;;9.73;4.83;;;1.10;99.90;;;;;;5031977;28;20413;-65
2023/03/07 05:12:26;;;;;;;14.37;5.13;;;1.10;99.90;;;;;;5031141;28;20177;-65
2023/03/07 05:14:52;;;;;;;12.23;5.80;;;1.10;99.90;;;;;;5032174;28;20179;-65
2023/03/07 05:17:18;;;;;;;8.87;5.27;;;1.10;99.90;;;;;;5031623;28;20178;-65
2023/03/07 05:19:44;;;;;;;14.10;6.53;;;1.10;99.90;;;;;;5031747;28;20594;-65
2023/03/07 05:22:10;;;;;;;9.27;4.83;;;1.10;99.90;;;;;;5031710;28;20421;-65
2023/03/07 05:24:36;;;;;;;14.13;5.47;;;1.10;99.90;;;;;;5031676;28;20213;-64
2023/03/07 05:27:02;;;;;;;10.03;5.60;;;1.10;99.90;;;;;;5031999;28;20182;-65
2023/03/07 05:29:28;;;;;;;10.73;5.23;;;1.10;99.90;;;;;;5032399;28;20421;-65
2023/03/07 05:31:53;;;;;;;14.10;4.80;;;1.10;99.90;;;;;;5031177;28;20174;-65
2023/03/07 05:34:19;;;;;;;13.03;5.53;;;1.00;99.90;;;;;;5032094;28;20188;-65
2023/03/07 05:36:45;;;;;;;11.33;4.87;;;1.00;99.90;;;;;;5031536;28;20178;-64
2023/03/07 05:39:11;;;;;;;14.43;5.33;;;1.00;99.90;;;;;;5031648;28;20186;-65
2023/03/07 05:41:37;;;;;;;11.07;4.50;;;1.00;99.90;;;;;;5030838;28;20425;-64
2023/03/07 05:44:02;;;;;;;13.13;5.27;;;1.00;99.90;;;;;;5031356;28;20670;-65
2023/03/07 05:46:28;;;;;;;7.53;3.90;;;1.00;99.90;;;;;;5030829;28;20186;-65
2023/03/07 05:48:54;;;;;;;9.90;4.63;;;1.00;99.90;;;;;;5031698;28;20210;-64
2023/03/07 05:51:20;;;;;;;8.13;4.50;;;1.00;99.90;;;;;;5030901;28;20711;-64
2023/03/07 05:53:47;;;;;;;10.80;4.37;;;1.00;99.90;;;;;;5030733;28;20980;-65
2023/03/07 05:56:12;;;;;;;12.57;4.87;;;1.00;99.90;;;;;;5030824;28;20456;-64
2023/03/07 05:58:38;;;;;;;10.97;4.60;;;1.00;99.90;;;;;;5031669;28;20217;-65
2023/03/07 06:01:04;;;;;;;10.70;5.50;;;1.00;99.90;;;;;;5030729;28;20205;-65
2023/03/07 06:03:30;;;;;;;10.57;4.13;;;1.00;99.90;;;;;;5030878;28;20187;-65
2023/03/07 06:05:56;;;;;;;10.93;4.87;;;1.00;99.90;;;;;;5031146;28;20601;-65
2023/03/07 06:08:22;;;;;;;14.83;6.07;;;1.00;99.90;;;;;;5030751;28;20496;-64
2023/03/07 06:10:52;;;;;;;11.43;5.43;;;1.00;99.90;;;;;;5030963;28;20183;-65
2023/03/07 06:13:21;;;;;;;14.37;6.30;;;1.10;99.90;;;;;;5031079;28;20786;-65
2023/03/07 06:15:51;;;;;;;15.10;6.03;;;1.20;99.90;;;;;;5031315;28;20413;-65
2023/03/07 06:18:17;;;;;;;8.10;4.67;;;1.20;99.90;;;;;;5030504;28;20910;-65
2023/03/07 06:20:43;;;;;;;13.20;5.30;;;1.20;99.90;;;;;;5030967;28;20460;-65
2023/03/07 06:23:09;;;;;;;10.80;5.30;;;1.20;99.90;;;;;;5030007;28;20460;-65
2023/03/07 06:25:35;;;;;;;9.37;4.53;;;1.20;99.90;;;;;;5030533;28;20187;-65
2023/03/07 06:28:01;;;;;;;15.00;5.80;;;1.20;99.90;;;;;;5026124;28;20221;-65
2023/03/07 06:30:28;;;;;;;7.10;3.80;;;1.20;99.90;;;;;;5027267;28;20421;-64
2023/03/07 06:32:54;;;;;;;10.87;4.67;;;1.20;99.90;;;;;;5027891;28;20633;-65
2023/03/07 06:35:19;;;;;;;9.53;3.83;;;1.30;99.90;;;;;;5030631;28;20429;-64
2023/03/07 06:37:45;;;;;;;9.23;4.67;;;1.30;99.90;;;;;;5026915;28;20197;-65
2023/03/07 06:40:11;;;;;;;8.57;4.13;;;1.30;99.90;;;;;;5028914;28;20182;-64
2023/03/07 06:42:37;;;;;;;11.00;5.40;;;1.30;99.90;;;;;;5028633;28;20217;-64
2023/03/07 06:45:03;;;;;;;6.90;3.60;;;1.30;99.90;;;;;;5028982;28;20277;-65
2023/03/07 06:47:29;;;;;;;10.27;4.07;;;1.30;99.90;;;;;;5028648;28;20575;-65
2023/03/07 06:49:54;;;;;;;6.93;3.57;;;1.30;99.90;;;;;;5029102;28;20427;-65
2023/03/07 06:52:21;;;;;;;11.90;5.10;;;1.40;99.80;;;;;;5028563;28;20179;-65
2023/03/07 06:54:47;;;;;;;8.17;4.13;;;1.40;99.90;;;;;;5028706;28;20190;-65
2023/03/07 06:57:13;;;;;;;9.07;4.10;;;1.40;99.80;;;;;;5028985;28;20921;-65
2023/03/07 06:59:39;;;;;;;9.07;3.80;;;1.40;99.70;;;;;;5028970;28;20187;-65
2023/03/07 07:02:05;;;;;;;10.90;4.40;;;1.50;99.80;;;;;;5030035;28;20187;-65
2023/03/07 07:04:32;;;;;;;8.03;3.50;;;1.50;99.60;;;;;;5034168;28;20560;-65
2023/03/07 07:06:57;;;;;;;10.70;4.37;;;1.50;99.60;;;;;;5035441;28;20469;-64
2023/03/07 07:09:23;;;;;;;7.23;3.73;;;1.60;99.50;;;;;;5034710;28;20465;-64
2023/03/07 07:11:49;;;;;;;11.07;4.13;;;1.70;99.50;;;;;;5033532;28;20616;-64
2023/03/07 07:14:14;;;;;;;8.63;4.17;;;1.80;99.30;;;;;;5033186;28;20189;-65
2023/03/07 07:16:40;;;;;;;6.70;3.60;;;1.80;99.50;;;;;;5034325;28;20182;-64
2023/03/07 07:19:05;;;;;;;6.87;3.60;;;1.80;99.10;;;;;;5032649;28;20186;-64
2023/03/07 07:21:31;;;;;;;11.00;3.90;;;2.00;99.20;;;;;;5034442;28;20280;-67
2023/03/07 07:23:57;;;;;;;8.30;4.17;;;2.00;99.00;;;;;;5035067;28;20219;-64
2023/03/07 07:26:23;;;;;;;11.03;4.43;;;2.10;98.90;;;;;;5035431;28;20197;-64
2023/03/07 07:28:50;;;;;;;5.83;3.40;;;2.10;98.80;;;;;;5039348;28;20476;-64
2023/03/07 07:31:15;;;;;;;14.27;5.40;;;2.20;98.90;;;;;;5035791;28;20500;-65
2023/03/07 07:33:41;;;;;;;10.43;4.93;;;2.20;98.90;;;;;;5034837;28;20543;-65
2023/03/07 07:36:07;;;;;;;7.97;4.30;;;2.30;98.90;;;;;;5034960;28;20210;-65
2023/03/07 07:38:33;;;;;;;10.43;4.77;;;2.30;98.70;;;;;;5034774;28;20269;-64
2023/03/07 07:41:01;;;;;;;5.93;2.73;;;2.40;98.60;;;;;;5035486;28;20838;-64
2023/03/07 07:43:27;;;;;;;9.83;4.80;;;2.50;98.60;;;;;;5033104;28;20607;-64
2023/03/07 07:45:52;;;;;;;9.40;4.03;;;2.60;98.50;;;;;;5031112;28;20425;-65
2023/03/07 07:48:18;;;;;;;8.97;4.07;;;2.70;98.50;;;;;;5032838;28;20953;-65
2023/03/07 07:50:44;;;;;;;9.97;4.77;;;2.80;98.10;;;;;;5034741;28;20182;-64
2023/03/07 07:53:10;;;;;;;10.27;4.77;;;3.10;98.10;;;;;;5032606;28;20183;-64
2023/03/07 07:55:36;;;;;;;8.03;3.40;;;3.40;97.70;;;;;;5034790;28;20490;-65
2023/03/07 07:58:01;;;;;;;8.87;4.70;;;3.70;97.20;;;;;;5033968;28;20233;-65
2023/03/07 08:00:27;;;;;;;14.10;4.93;;;4.00;96.90;;;;;;5033516;28;20349;-65
2023/03/07 08:02:53;;;;;;;7.30;3.73;;;4.30;96.40;;;;;;5033571;28;20182;-66
2023/03/07 08:05:20;;;;;;;13.47;5.30;;;4.30;95.80;;;;;;5033370;28;20205;-65
2023/03/07 08:07:46;;;;;;;9.40;4.17;;;4.50;95.70;;;;;;5034157;28;20312;-65
2023/03/07 08:10:14;;;;;;;7.50;4.00;;;4.40;95.50;;;;;;5033612;28;20559;-66
2023/03/07 08:12:46;;;;;;;7.63;3.30;;;4.70;95.50;;;;;;5033027;28;20445;-66
2023/03/07 08:15:12;;;;;;;8.00;3.67;;;5.10;95.20;;;;;;5031333;28;20436;-66
2023/03/07 08:17:38;;;;;;;9.67;4.07;;;5.30;94.50;;;;;;5030252;28;20417;-66
2023/03/07 08:20:08;;;;;;;8.37;4.53;;;5.50;94.10;;;;;;5030969;28;20528;-65
2023/03/07 08:22:37;;;;;;;6.40;3.17;;;5.30;93.90;;;;;;5029154;28;20190;-65
2023/03/07 08:25:16;;;;;;;9.27;4.40;;;5.30;93.80;;;;;;5030024;28;20429;-65
2023/03/07 08:27:42;;;;;;;6.83;3.20;;;5.20;94.20;;;;;;5030795;28;20465;-65
2023/03/07 08:30:08;;;;;;;9.37;4.30;;;5.20;93.80;;;;;;5031811;28;20428;-66
2023/03/07 08:32:34;;;;;;;10.03;4.33;;;5.00;94.10;;;;;;5031940;28;20252;-65
2023/03/07 08:35:00;;;;;;;7.47;4.27;;;4.50;94.20;;;;;;5031276;28;20449;-65
2023/03/07 08:37:25;;;;;;;9.00;3.90;;;4.30;94.80;;;;;;5031419;28;20592;-66
2023/03/07 08:39:51;;;;;;;11.83;3.70;;;4.30;95.00;;;;;;5030926;28;20178;-65
2023/03/07 08:42:17;;;;;;;8.73;3.60;;;4.20;95.10;;;;;;5030752;28;20620;-65
2023/03/07 08:44:42;;;;;;;12.87;5.17;;;4.30;95.50;;;;;;5031113;28;20187;-66
2023/03/07 08:47:10;;;;;;;7.03;3.57;;;4.50;95.00;;;;;;5030566;28;20494;-65
2023/03/07 08:49:35;;;;;;;6.27;3.80;;;4.70;94.60;;;;;;5030731;28;20640;-65
2023/03/07 08:52:01;;;;;;;9.10;4.33;;;4.80;94.00;;;;;;5030050;28;20416;-65
2023/03/07 08:54:28;;;;;;;9.93;4.27;;;5.10;94.30;;;;;;5029952;28;20639;-65
2023/03/07 08:56:53;;;;;;;6.80;2.50;;;5.00;94.10;;;;;;5030956;28;20170;-68
2023/03/07 08:59:19;;;;;;;4.90;3.10;;;4.90;93.50;;;;;;5031342;28;20448;-65
2023/03/07 09:01:44;;;;;;;7.77;3.53;;;4.90;92.70;;;;;;5030359;28;20182;-65
2023/03/07 09:04:10;;;;;;;7.03;2.77;;;4.60;93.10;;;;;;5031322;28;20182;-65
2023/03/07 09:06:35;;;;;;;11.60;3.03;;;4.50;93.80;;;;;;5031001;28;20568;-65
2023/03/07 09:09:01;;;;;;;8.30;4.30;;;4.50;93.60;;;;;;5030114;28;20201;-64
2023/03/07 09:11:27;;;;;;;10.13;4.47;;;4.40;93.50;;;;;;5030191;28;20183;-65
2023/03/07 09:13:52;;;;;;;7.30;3.57;;;4.30;93.80;;;;;;5030355;28;20174;-65
2023/03/07 09:16:18;;;;;;;7.87;3.97;;;4.40;93.80;;;;;;5029537;28;20226;-65
2023/03/07 09:18:44;;;;;;;6.70;3.30;;;4.20;94.30;;;;;;5031125;28;20248;-65
2023/03/07 09:21:09;;;;;;;6.23;3.37;;;4.20;93.90;;;;;;5030687;28;20248;-65
2023/03/07 09:23:35;;;;;;;7.47;4.10;;;4.20;94.00;;;;;;5030269;28;20694;-65
2023/03/07 09:26:02;;;;;;;11.47;3.83;;;4.20;94.40;;;;;;5029846;28;20175;-65
2023/03/07 09:28:27;;;;;;;8.97;3.30;;;4.20;94.30;;;;;;5026794;28;20210;-65
2023/03/07 09:30:53;;;;;;;8.90;3.67;;;4.00;94.40;;;;;;5029698;28;20459;-65
2023/03/07 09:33:18;;;;;;;9.30;4.27;;;4.00;94.50;;;;;;5025283;28;20197;-65
2023/03/07 09:35:44;;;;;;;5.67;3.33;;;4.00;94.50;;;;;;5029860;28;20182;-65
2023/03/07 09:38:10;;;;;;;7.27;3.50;;;3.90;94.30;;;;;;5029586;28;20185;-65
2023/03/07 09:40:37;;;;;;;9.90;3.40;;;4.00;94.50;;;;;;5030033;28;20175;-65
2023/03/07 09:43:17;;;;;;;9.40;3.70;;;4.00;94.40;;;;;;5028819;28;20183;-65
2023/03/07 09:46:27;;;;;;;6.20;3.33;;;3.90;94.60;;;;;;5030013;28;20507;-65
2023/03/07 09:49:16;;;;;;;7.70;3.30;;;3.80;95.20;;;;;;5028578;28;20904;-65
2023/03/07 09:51:44;;;;;;;8.87;3.27;;;3.70;94.80;;;;;;5024595;28;21021;-65
2023/03/07 09:54:15;;;;;;;14.10;5.10;;;3.80;95.10;;;;;;5029317;28;20770;-65
2023/03/07 09:56:56;;;;;;;9.80;3.40;;;3.70;94.80;;;;;;5029448;28;20421;-65
2023/03/07 09:59:42;;;;;;;6.93;3.70;;;3.70;95.00;;;;;;5029812;28;20438;-65
2023/03/07 10:02:31;;;;;;;6.30;3.60;;;3.70;94.80;;;;;;5027094;28;20779;-65
2023/03/07 10:05:03;;;;;;;8.60;4.33;;;3.70;94.80;;;;;;5029906;28;20414;-65
2023/03/07 10:07:29;;;;;;;9.13;3.50;;;3.70;94.80;;;;;;5027125;28;20467;-65
2023/03/07 10:10:11;;;;;;;6.20;3.57;;;3.70;94.50;;;;;;5029358;28;20413;-65
2023/03/07 10:12:51;;;;;;;7.70;3.83;;;3.70;94.60;;;;;;5028337;28;20413;-66
2023/03/07 10:15:44;;;;;;;8.00;3.90;;;3.60;94.20;;;;;;5029203;28;20449;-66
2023/03/07 10:18:21;;;;;;;7.20;3.27;;;3.60;94.20;;;;;;5029088;28;20428;-65
2023/03/07 10:20:55;;;;;;;11.77;3.90;;;3.70;94.10;;;;;;5028988;28;20475;-66
2023/03/07 10:23:56;;;;;;;5.20;3.17;;;3.60;94.20;;;;;;5027986;28;20427;-65
2023/03/07 10:26:25;;;;;;;6.60;3.37;;;3.70;94.00;;;;;;5005981;28;20436;-65
2023/03/07 10:28:52;;;;;;;12.23;4.30;;;3.60;94.20;;;;;;5028623;28;20469;-66
2023/03/07 10:31:33;;;;;;;7.40;3.27;;;3.70;94.10;;;;;;5029394;28;20693;-66
2023/03/07 10:34:07;;;;;;;3.70;2.40;;;3.80;94.20;;;;;;5029177;28;20683;-66
2023/03/07 10:36:47;;;;;;;4.57;3.13;;;3.80;93.80;;;;;;5025389;28;20862;-66
2023/03/07 10:39:55;;;;;;;6.83;3.00;;;3.80;93.80;;;;;;5028598;28;20890;-66
2023/03/07 10:42:23;;;;;;;13.67;4.00;;;3.90;93.70;;;;;;5027763;28;20984;-66
2023/03/07 10:44:52;;;;;;;11.10;3.67;;;3.90;93.60;;;;;;5029460;28;20429;-66
2023/03/07 10:47:21;;;;;;;10.70;3.87;;;4.00;92.90;;;;;;5028227;28;20417;-66
2023/03/07 10:49:49;;;;;;;6.50;3.70;;;3.90;93.00;;;;;;5028986;28;20448;-66
2023/03/07 10:52:42;;;;;;;7.77;3.27;;;3.90;92.80;;;;;;5028868;28;20413;-66
2023/03/07 10:55:30;;;;;;;6.67;3.20;;;3.70;93.00;;;;;;5026723;28;20428;-66
2023/03/07 10:58:24;;;;;;;4.87;3.20;;;3.80;93.00;;;;;;5028756;28;20409;-67
2023/03/07 11:01:03;;;;;;;6.37;3.37;;;3.80;92.50;;;;;;5025701;28;20447;-66
2023/03/07 11:03:38;;;;;;;5.97;2.83;;;3.80;92.70;;;;;;5026986;28;20451;-67
2023/03/07 11:06:24;;;;;;;7.13;3.07;;;3.80;92.80;;;;;;5029085;28;20440;-66
2023/03/07 11:08:50;;;;;;;12.90;4.17;;;3.80;92.00;;;;;;5023821;28;20479;-66
2023/03/07 11:11:24;;;;;;;11.20;3.80;;;3.80;91.60;;;;;;5028484;28;20887;-67
2023/03/07 11:14:11;;;;;;;9.43;4.03;;;3.80;92.20;;;;;;5029670;28;20189;-67
2023/03/07 11:17:00;;;;;;;9.27;4.10;;;3.70;92.10;;;;;;5028841;28;20408;-67
2023/03/07 11:19:46;;;;;;;7.37;3.03;;;3.70;91.80;;;;;;5025542;28;20424;-67
2023/03/07 11:22:20;;;;;;;6.53;3.27;;;3.70;91.30;;;;;;5028631;28;20432;-64
2023/03/07 11:24:51;;;;;;;6.47;2.77;;;3.80;91.30;;;;;;5023375;28;20424;-64
2023/03/07 11:27:31;;;;;;;7.03;3.33;;;3.80;91.60;;;;;;5027685;28;20452;-64
2023/03/07 11:30:05;;;;;;;7.90;4.20;;;3.90;91.20;;;;;;5028550;28;20405;-63
2023/03/07 11:32:32;;;;;;;8.03;4.50;;;3.90;90.80;;;;;;5028149;28;20419;-66
2023/03/07 11:35:14;;;;;;;8.83;3.73;;;3.90;90.40;;;;;;5028316;28;20429;-67
2023/03/07 11:37:51;;;;;;;8.40;3.23;;;3.80;90.50;;;;;;5022153;28;20762;-65
2023/03/07 11:40:27;;;;;;;5.90;3.50;;;3.80;90.00;;;;;;5028727;28;20456;-65
2023/03/07 11:43:01;;;;;;;9.87;4.70;;;3.70;90.00;;;;;;5029508;28;20888;-65
2023/03/07 11:45:45;;;;;;;10.23;3.87;;;3.70;90.30;;;;;;5027475;28;20421;-65
2023/03/07 11:48:26;;;;;;;8.00;3.47;;;3.70;90.10;;;;;;5029852;28;20490;-65
2023/03/07 11:50:58;;;;;;;8.17;3.40;;;3.70;90.40;;;;;;5028910;28;20436;-65
2023/03/07 11:53:33;;;;;;;7.80;4.10;;;3.80;90.30;;;;;;5033229;28;20920;-65
2023/03/07 11:56:04;;;;;;;7.00;3.70;;;3.70;90.60;;;;;;5033409;28;20440;-65
2023/03/07 11:59:27;;;;;;;7.77;3.23;;;3.70;90.50;;;;;;5032200;28;20413;-65
2023/03/07 12:02:01;;;;;;;10.53;4.10;;;3.70;90.50;;;;;;5014458;28;20429;-65
2023/03/07 12:04:45;;;;;;;10.40;4.20;;;3.50;91.30;;;;;;5031571;28;20924;-65
2023/03/07 12:07:34;;;;;;;8.70;4.13;;;3.50;91.50;;;;;;5033355;28;20409;-65
2023/03/07 12:10:15;;;;;;;9.90;3.90;;;3.60;91.10;;;;;;5032794;28;20428;-65
2023/03/07 12:13:10;;;;;;;8.17;4.10;;;3.60;91.10;;;;;;5032790;28;20409;-65
2023/03/07 12:16:04;;;;;;;11.03;3.70;;;3.60;90.90;;;;;;5029354;28;20914;-65
2023/03/07 12:19:11;;;;;;;9.90;4.10;;;3.70;91.30;;;;;;5026802;28;20913;-65
2023/03/07 12:21:57;;;;;;;5.40;3.40;;;3.90;90.60;;;;;;5007448;28;20945;-65
2023/03/07 12:24:30;;;;;;;9.87;3.90;;;4.00;90.50;;;;;;5034089;28;20504;-64
2023/03/07 12:26:58;;;;;;;9.17;3.37;;;4.30;91.50;;;;;;5032099;28;20429;-65
2023/03/07 12:29:34;;;;;;;10.70;4.03;;;4.50;90.00;;;;;;5030245;28;20941;-65
2023/03/07 12:32:07;;;;;;;5.47;2.83;;;4.50;89.50;;;;;;5032380;28;20424;-64
2023/03/07 12:34:49;;;;;;;5.27;3.17;;;4.70;89.80;;;;;;5026039;28;20421;-65
2023/03/07 12:37:31;;;;;;;8.37;3.40;;;5.00;89.90;;;;;;5032452;28;20511;-65
2023/03/07 12:40:01;;;;;;;7.03;3.10;;;5.00;87.70;;;;;;5033232;28;20413;-65
2023/03/07 12:42:45;;;;;;;9.20;4.00;;;5.10;88.50;;;;;;5032431;28;20429;-65
2023/03/07 12:45:25;;;;;;;7.40;2.93;;;5.00;85.50;;;;;;5031569;28;20414;-65
2023/03/07 12:47:54;;;;;;;7.03;3.17;;;5.20;85.90;;;;;;5032757;28;20987;-65
2023/03/07 12:50:45;;;;;;;5.90;2.30;;;5.40;87.20;;;;;;5033544;28;20504;-65
2023/03/07 12:53:21;;;;;;;4.40;2.13;;;5.70;87.00;;;;;;5032932;28;20409;-64
2023/03/07 12:56:16;;;;;;;7.50;2.60;;;5.90;84.10;;;;;;5032906;28;20416;-65
2023/03/07 12:58:49;;;;;;;11.67;3.60;;;5.90;85.40;;;;;;5027280;28;20476;-65
2023/03/07 13:01:29;;;;;;;9.60;3.13;;;5.90;84.50;;;;;;5031054;28;20425;-65
2023/03/07 13:04:19;;;;;;;7.10;3.00;;;5.90;83.50;;;;;;5033063;28;20420;-65
2023/03/07 13:06:46;;;;;;;4.47;2.20;;;5.70;83.70;;;;;;5030712;28;20529;-65